sensor_id;sensor_type;location;lat;lon;timestamp;pressure;altitude;pressure_sealevel;temperature;humidity
21011;BME280;10663;42.714;23.274;2023-04-30T00:00:12;94472.16;;;14.35;61.18
21011;BME280;10663;42.714;23.274;2023-04-30T00:01:44;94466.84;;;14.35;61.95
21011;BME280;10663;42.714;23.274;2023-04-30T00:03:14;94468.69;;;14.34;60.95
21011;BME280;10663;42.714;23.274;2023-04-30T00:04:45;94464.25;;;14.30;60.80
21011;BME280;10663;42.714;23.274;2023-04-30T00:06:16;94459.81;;;14.25;61.07
21011;BME280;10663;42.714;23.274;2023-04-30T00:07:47;94464.06;;;14.26;61.89
21011;BME280;10663;42.714;23.274;2023-04-30T00:09:18;94462.19;;;14.27;60.96
21011;BME280;10663;42.714;23.274;2023-04-30T00:10:49;94463.84;;;14.22;60.80
21011;BME280;10663;42.714;23.274;2023-04-30T00:12:21;94464.34;;;14.24;62.18
21011;BME280;10663;42.714;23.274;2023-04-30T00:13:52;94460.19;;;14.18;60.15
21011;BME280;10663;42.714;23.274;2023-04-30T00:15:23;94460.38;;;14.08;59.23
21011;BME280;10663;42.714;23.274;2023-04-30T00:16:54;94462.63;;;14.01;59.26
21011;BME280;10663;42.714;23.274;2023-04-30T00:18:25;94465.53;;;13.67;58.45
21011;BME280;10663;42.714;23.274;2023-04-30T00:19:56;94464.25;;;13.65;58.66
21011;BME280;10663;42.714;23.274;2023-04-30T00:21:27;94465.34;;;13.45;58.19
21011;BME280;10663;42.714;23.274;2023-04-30T00:22:58;94466.47;;;13.58;58.36
21011;BME280;10663;42.714;23.274;2023-04-30T00:24:29;94467.63;;;13.33;58.20
21011;BME280;10663;42.714;23.274;2023-04-30T00:25:59;94465.75;;;13.33;58.19
21011;BME280;10663;42.714;23.274;2023-04-30T00:27:31;94462.03;;;13.34;58.26
21011;BME280;10663;42.714;23.274;2023-04-30T00:29:02;94465.47;;;13.16;58.79
21011;BME280;10663;42.714;23.274;2023-04-30T00:30:32;94464.31;;;13.22;58.58
21011;BME280;10663;42.714;23.274;2023-04-30T00:32:04;94469.69;;;13.17;58.46
21011;BME280;10663;42.714;23.274;2023-04-30T00:33:36;94470.50;;;13.12;59.07
21011;BME280;10663;42.714;23.274;2023-04-30T00:35:07;94467.31;;;13.16;58.48
21011;BME280;10663;42.714;23.274;2023-04-30T00:36:38;94471.78;;;13.20;58.47
21011;BME280;10663;42.714;23.274;2023-04-30T00:38:10;94470.25;;;13.14;58.94
21011;BME280;10663;42.714;23.274;2023-04-30T00:39:41;94471.66;;;13.06;58.86
21011;BME280;10663;42.714;23.274;2023-04-30T00:41:12;94473.38;;;12.97;59.02
21011;BME280;10663;42.714;23.274;2023-04-30T00:42:43;94473.75;;;13.09;58.78
21011;BME280;10663;42.714;23.274;2023-04-30T00:44:14;94474.25;;;13.11;58.49
21011;BME280;10663;42.714;23.274;2023-04-30T00:45:44;94470.88;;;13.06;58.67
21011;BME280;10663;42.714;23.274;2023-04-30T00:47:15;94467.19;;;13.02;58.61
21011;BME280;10663;42.714;23.274;2023-04-30T00:48:46;94464.84;;;13.00;58.63
21011;BME280;10663;42.714;23.274;2023-04-30T00:50:18;94466.91;;;13.03;58.54
21011;BME280;10663;42.714;23.274;2023-04-30T00:51:49;94459.72;;;13.04;58.34
21011;BME280;10663;42.714;23.274;2023-04-30T00:53:21;94462.63;;;13.07;58.52
21011;BME280;10663;42.714;23.274;2023-04-30T00:54:52;94462.50;;;12.94;58.62
21011;BME280;10663;42.714;23.274;2023-04-30T00:56:24;94454.09;;;13.10;58.32
21011;BME280;10663;42.714;23.274;2023-04-30T00:57:55;94460.56;;;13.23;57.82
21011;BME280;10663;42.714;23.274;2023-04-30T00:59:26;94455.34;;;13.13;57.70
21011;BME280;10663;42.714;23.274;2023-04-30T01:01:00;94461.75;;;13.12;57.75
21011;BME280;10663;42.714;23.274;2023-04-30T01:02:32;94461.13;;;13.20;57.30
21011;BME280;10663;42.714;23.274;2023-04-30T01:04:03;94456.72;;;12.92;57.83
21011;BME280;10663;42.714;23.274;2023-04-30T01:05:35;94466.63;;;13.29;57.24
21011;BME280;10663;42.714;23.274;2023-04-30T01:07:06;94460.66;;;13.37;56.44
21011;BME280;10663;42.714;23.274;2023-04-30T01:08:37;94460.66;;;13.37;58.35
21011;BME280;10663;42.714;23.274;2023-04-30T01:10:08;94455.25;;;13.42;60.37
21011;BME280;10663;42.714;23.274;2023-04-30T01:12:02;94463.31;;;13.56;59.85
21011;BME280;10663;42.714;23.274;2023-04-30T01:13:44;94462.25;;;13.38;58.91
21011;BME280;10663;42.714;23.274;2023-04-30T01:18:35;94463.19;;;13.28;60.00
21011;BME280;10663;42.714;23.274;2023-04-30T01:20:09;94466.28;;;13.35;60.16
21011;BME280;10663;42.714;23.274;2023-04-30T01:21:41;94464.16;;;13.32;59.28
21011;BME280;10663;42.714;23.274;2023-04-30T01:28:38;94458.72;;;13.42;61.58
21011;BME280;10663;42.714;23.274;2023-04-30T01:30:10;94463.00;;;13.38;60.89
21011;BME280;10663;42.714;23.274;2023-04-30T01:31:43;94464.59;;;13.39;60.56
21011;BME280;10663;42.714;23.274;2023-04-30T01:33:14;94460.53;;;13.28;60.64
21011;BME280;10663;42.714;23.274;2023-04-30T01:34:45;94466.16;;;13.22;60.90
21011;BME280;10663;42.714;23.274;2023-04-30T01:36:26;94464.53;;;13.26;59.88
21011;BME280;10663;42.714;23.274;2023-04-30T01:43:49;94465.75;;;13.33;60.15
21011;BME280;10663;42.714;23.274;2023-04-30T01:45:32;94462.81;;;13.35;59.50
21011;BME280;10663;42.714;23.274;2023-04-30T01:51:21;94474.59;;;12.62;61.83
21011;BME280;10663;42.714;23.274;2023-04-30T01:52:58;94478.16;;;12.48;62.80
21011;BME280;10663;42.714;23.274;2023-04-30T01:54:44;94467.19;;;12.83;63.60
21011;BME280;10663;42.714;23.274;2023-04-30T01:56:21;94461.22;;;12.91;61.22
21011;BME280;10663;42.714;23.274;2023-04-30T01:57:58;94465.63;;;13.01;61.31
21011;BME280;10663;42.714;23.274;2023-04-30T01:59:35;94464.31;;;13.22;61.52
21011;BME280;10663;42.714;23.274;2023-04-30T02:01:26;94466.91;;;13.27;61.19
21011;BME280;10663;42.714;23.274;2023-04-30T02:02:58;94464.16;;;13.32;61.05
21011;BME280;10663;42.714;23.274;2023-04-30T02:04:29;94471.63;;;13.30;61.52
21011;BME280;10663;42.714;23.274;2023-04-30T02:06:00;94469.34;;;13.24;60.76
21011;BME280;10663;42.714;23.274;2023-04-30T02:07:50;94474.25;;;13.11;60.56
21011;BME280;10663;42.714;23.274;2023-04-30T02:09:21;94468.56;;;12.99;61.09
21011;BME280;10663;42.714;23.274;2023-04-30T02:10:53;94472.50;;;13.02;62.21
21011;BME280;10663;42.714;23.274;2023-04-30T02:12:24;94467.69;;;13.04;62.23
21011;BME280;10663;42.714;23.274;2023-04-30T02:13:55;94464.94;;;13.14;62.45
21011;BME280;10663;42.714;23.274;2023-04-30T02:15:26;94463.31;;;13.18;62.56
21011;BME280;10663;42.714;23.274;2023-04-30T02:16:57;94466.28;;;13.11;62.14
21011;BME280;10663;42.714;23.274;2023-04-30T02:18:28;94469.41;;;12.95;61.19
21011;BME280;10663;42.714;23.274;2023-04-30T02:19:59;94466.06;;;13.08;61.94
21011;BME280;10663;42.714;23.274;2023-04-30T02:21:30;94463.25;;;12.99;60.79
21011;BME280;10663;42.714;23.274;2023-04-30T02:23:01;94467.72;;;13.28;62.49
21011;BME280;10663;42.714;23.274;2023-04-30T02:24:32;94459.22;;;13.26;61.29
21011;BME280;10663;42.714;23.274;2023-04-30T02:26:03;94460.44;;;13.33;61.97
21011;BME280;10663;42.714;23.274;2023-04-30T02:27:34;94459.22;;;13.26;59.37
21011;BME280;10663;42.714;23.274;2023-04-30T02:29:05;94458.00;;;13.18;60.63
21011;BME280;10663;42.714;23.274;2023-04-30T02:30:36;94463.47;;;13.27;60.80
21011;BME280;10663;42.714;23.274;2023-04-30T02:32:06;94463.03;;;13.20;59.61
21011;BME280;10663;42.714;23.274;2023-04-30T02:33:38;94462.88;;;13.30;61.24
21011;BME280;10663;42.714;23.274;2023-04-30T02:35:09;94465.31;;;13.26;60.84
21011;BME280;10663;42.714;23.274;2023-04-30T02:36:40;94464.25;;;13.27;61.28
21011;BME280;10663;42.714;23.274;2023-04-30T02:38:11;94461.22;;;13.34;61.16
21011;BME280;10663;42.714;23.274;2023-04-30T02:39:42;94462.88;;;13.48;61.07
21011;BME280;10663;42.714;23.274;2023-04-30T02:41:13;94462.88;;;13.48;60.54
21011;BME280;10663;42.714;23.274;2023-04-30T02:42:44;94464.97;;;13.33;59.85
21011;BME280;10663;42.714;23.274;2023-04-30T02:44:15;94458.28;;;13.17;60.39
21011;BME280;10663;42.714;23.274;2023-04-30T02:45:46;94466.28;;;13.11;59.89
21011;BME280;10663;42.714;23.274;2023-04-30T02:47:16;94467.94;;;13.07;60.34
21011;BME280;10663;42.714;23.274;2023-04-30T02:48:48;94467.78;;;12.99;61.58
21011;BME280;10663;42.714;23.274;2023-04-30T02:50:18;94466.28;;;13.11;61.63
21011;BME280;10663;42.714;23.274;2023-04-30T02:51:49;94470.94;;;12.77;61.33
21011;BME280;10663;42.714;23.274;2023-04-30T02:53:20;94469.53;;;12.85;61.12
21011;BME280;10663;42.714;23.274;2023-04-30T02:54:51;94478.63;;;13.02;60.45
21011;BME280;10663;42.714;23.274;2023-04-30T02:56:22;94472.53;;;12.78;60.52
21011;BME280;10663;42.714;23.274;2023-04-30T02:57:52;94477.69;;;12.69;60.42
21011;BME280;10663;42.714;23.274;2023-04-30T02:59:23;94473.41;;;12.73;62.11
21011;BME280;10663;42.714;23.274;2023-04-30T03:00:54;94474.00;;;12.89;60.20
21011;BME280;10663;42.714;23.274;2023-04-30T03:02:25;94477.75;;;12.64;60.97
21011;BME280;10663;42.714;23.274;2023-04-30T03:03:56;94482.03;;;12.60;61.69
21011;BME280;10663;42.714;23.274;2023-04-30T03:05:29;94476.84;;;12.74;62.89
21011;BME280;10663;42.714;23.274;2023-04-30T03:07:00;94481.53;;;12.82;62.73
21011;BME280;10663;42.714;23.274;2023-04-30T03:08:31;94485.38;;;12.71;62.13
21011;BME280;10663;42.714;23.274;2023-04-30T03:10:02;94481.41;;;12.68;62.58
21011;BME280;10663;42.714;23.274;2023-04-30T03:11:32;94481.75;;;12.62;62.60
21011;BME280;10663;42.714;23.274;2023-04-30T03:13:07;94484.91;;;12.88;62.77
21011;BME280;10663;42.714;23.274;2023-04-30T03:14:38;94486.38;;;12.75;62.17
21011;BME280;10663;42.714;23.274;2023-04-30T03:16:09;94486.97;;;12.72;62.42
21011;BME280;10663;42.714;23.274;2023-04-30T03:17:40;94485.53;;;12.80;62.94
21011;BME280;10663;42.714;23.274;2023-04-30T03:19:11;94484.47;;;12.81;61.84
21011;BME280;10663;42.714;23.274;2023-04-30T03:20:42;94495.03;;;12.86;62.16
21011;BME280;10663;42.714;23.274;2023-04-30T03:22:13;94493.44;;;12.85;62.23
21011;BME280;10663;42.714;23.274;2023-04-30T03:23:44;94491.09;;;12.83;61.06
21011;BME280;10663;42.714;23.274;2023-04-30T03:25:16;94489.72;;;12.86;61.76
21011;BME280;10663;42.714;23.274;2023-04-30T03:26:47;94483.50;;;12.95;62.35
21011;BME280;10663;42.714;23.274;2023-04-30T03:28:18;94489.03;;;12.99;61.62
21011;BME280;10663;42.714;23.274;2023-04-30T03:29:49;94489.25;;;13.02;61.94
21011;BME280;10663;42.714;23.274;2023-04-30T03:31:20;94490.34;;;13.01;61.99
21011;BME280;10663;42.714;23.274;2023-04-30T03:32:51;94489.91;;;13.13;61.86
21011;BME280;10663;42.714;23.274;2023-04-30T03:34:22;94489.91;;;13.13;61.25
21011;BME280;10663;42.714;23.274;2023-04-30T03:35:52;94488.09;;;13.14;61.43
21011;BME280;10663;42.714;23.274;2023-04-30T03:37:23;94490.19;;;13.17;61.02
21011;BME280;10663;42.714;23.274;2023-04-30T03:38:54;94498.25;;;13.06;60.25
21011;BME280;10663;42.714;23.274;2023-04-30T03:40:25;94499.16;;;13.21;61.68
21011;BME280;10663;42.714;23.274;2023-04-30T03:41:56;94502.75;;;13.30;60.42
21011;BME280;10663;42.714;23.274;2023-04-30T03:43:27;94502.44;;;13.36;60.70
21011;BME280;10663;42.714;23.274;2023-04-30T03:44:58;94508.06;;;13.30;61.14
21011;BME280;10663;42.714;23.274;2023-04-30T03:46:29;94512.69;;;13.24;60.36
21011;BME280;10663;42.714;23.274;2023-04-30T03:48:00;94508.38;;;13.28;60.81
21011;BME280;10663;42.714;23.274;2023-04-30T03:49:30;94512.88;;;13.04;60.32
21011;BME280;10663;42.714;23.274;2023-04-30T03:51:01;94519.03;;;12.52;61.45
21011;BME280;10663;42.714;23.274;2023-04-30T03:52:33;94515.84;;;12.55;62.13
21011;BME280;10663;42.714;23.274;2023-04-30T03:54:04;94511.81;;;12.57;61.70
21011;BME280;10663;42.714;23.274;2023-04-30T03:55:35;94517.97;;;12.53;61.34
21011;BME280;10663;42.714;23.274;2023-04-30T03:57:07;94517.78;;;12.73;61.49
21011;BME280;10663;42.714;23.274;2023-04-30T03:58:40;94520.09;;;12.80;61.53
21011;BME280;10663;42.714;23.274;2023-04-30T04:00:11;94528.13;;;12.74;61.85
21011;BME280;10663;42.714;23.274;2023-04-30T04:01:48;94520.78;;;12.90;61.52
21011;BME280;10663;42.714;23.274;2023-04-30T04:03:20;94525.66;;;12.83;61.91
21011;BME280;10663;42.714;23.274;2023-04-30T04:04:51;94520.78;;;12.90;62.00
21011;BME280;10663;42.714;23.274;2023-04-30T04:06:22;94522.75;;;12.80;60.95
21011;BME280;10663;42.714;23.274;2023-04-30T04:07:54;94527.38;;;12.69;60.49
21011;BME280;10663;42.714;23.274;2023-04-30T04:09:24;94531.72;;;12.60;60.86
21011;BME280;10663;42.714;23.274;2023-04-30T04:10:55;94523.00;;;12.54;61.29
21011;BME280;10663;42.714;23.274;2023-04-30T04:12:26;94525.94;;;12.53;61.94
21011;BME280;10663;42.714;23.274;2023-04-30T04:13:57;94535.59;;;12.72;61.57
21011;BME280;10663;42.714;23.274;2023-04-30T04:15:28;94533.00;;;12.91;62.44
21011;BME280;10663;42.714;23.274;2023-04-30T04:17:00;94529.44;;;13.01;61.41
21011;BME280;10663;42.714;23.274;2023-04-30T04:18:31;94531.56;;;12.99;62.13
21011;BME280;10663;42.714;23.274;2023-04-30T04:20:02;94533.09;;;12.81;62.27
21011;BME280;10663;42.714;23.274;2023-04-30T04:21:35;94537.44;;;12.96;62.53
21011;BME280;10663;42.714;23.274;2023-04-30T04:23:11;94530.53;;;12.47;62.12
21011;BME280;10663;42.714;23.274;2023-04-30T04:24:42;94521.06;;;12.36;61.32
21011;BME280;10663;42.714;23.274;2023-04-30T04:26:16;94527.94;;;12.08;62.89
21011;BME280;10663;42.714;23.274;2023-04-30T04:27:50;94542.78;;;12.67;62.66
21011;BME280;10663;42.714;23.274;2023-04-30T04:29:21;94528.69;;;12.71;60.98
21011;BME280;10663;42.714;23.274;2023-04-30T04:30:52;94538.25;;;12.72;61.43
21011;BME280;10663;42.714;23.274;2023-04-30T04:32:23;94536.81;;;12.80;61.61
21011;BME280;10663;42.714;23.274;2023-04-30T04:33:55;94535.59;;;12.72;61.50
21011;BME280;10663;42.714;23.274;2023-04-30T04:35:28;94534.84;;;12.91;60.53
21011;BME280;10663;42.714;23.274;2023-04-30T04:36:59;94538.13;;;12.83;60.48
21011;BME280;10663;42.714;23.274;2023-04-30T04:38:31;94535.97;;;12.61;60.57
21011;BME280;10663;42.714;23.274;2023-04-30T04:40:03;94538.03;;;12.93;60.50
21011;BME280;10663;42.714;23.274;2023-04-30T04:41:35;94541.25;;;13.14;60.22
21011;BME280;10663;42.714;23.274;2023-04-30T04:43:07;94546.09;;;13.06;59.44
21011;BME280;10663;42.714;23.274;2023-04-30T04:44:38;94526.84;;;13.38;57.72
21011;BME280;10663;42.714;23.274;2023-04-30T04:46:11;94534.47;;;13.26;58.17
21011;BME280;10663;42.714;23.274;2023-04-30T04:47:42;94537.06;;;13.50;58.59
21011;BME280;10663;42.714;23.274;2023-04-30T04:49:13;94541.09;;;13.66;59.10
21011;BME280;10663;42.714;23.274;2023-04-30T04:50:44;94540.91;;;13.81;57.88
21011;BME280;10663;42.714;23.274;2023-04-30T04:52:15;94540.78;;;13.92;58.10
21011;BME280;10663;42.714;23.274;2023-04-30T04:53:45;94546.91;;;13.49;57.91
21011;BME280;10663;42.714;23.274;2023-04-30T04:55:16;94542.91;;;13.52;57.64
21011;BME280;10663;42.714;23.274;2023-04-30T04:56:48;94552.84;;;13.84;58.37
21011;BME280;10663;42.714;23.274;2023-04-30T04:58:19;94555.56;;;13.98;57.66
21011;BME280;10663;42.714;23.274;2023-04-30T04:59:50;94554.63;;;14.07;57.26
21011;BME280;10663;42.714;23.274;2023-04-30T05:01:21;94550.66;;;14.23;57.27
21011;BME280;10663;42.714;23.274;2023-04-30T05:02:52;94550.59;;;14.29;56.95
21011;BME280;10663;42.714;23.274;2023-04-30T05:04:23;94550.28;;;14.30;56.75
21011;BME280;10663;42.714;23.274;2023-04-30T05:05:54;94544.09;;;14.35;56.59
21011;BME280;10663;42.714;23.274;2023-04-30T05:07:25;94555.31;;;14.32;56.82
21011;BME280;10663;42.714;23.274;2023-04-30T05:08:56;94549.19;;;14.50;55.83
21011;BME280;10663;42.714;23.274;2023-04-30T05:10:27;94543.00;;;14.36;55.75
21011;BME280;10663;42.714;23.274;2023-04-30T05:11:58;94551.78;;;14.36;55.52
21011;BME280;10663;42.714;23.274;2023-04-30T05:13:28;94555.59;;;14.30;56.43
21011;BME280;10663;42.714;23.274;2023-04-30T05:14:59;94553.06;;;14.06;56.45
21011;BME280;10663;42.714;23.274;2023-04-30T05:16:30;94543.19;;;14.07;57.09
21011;BME280;10663;42.714;23.274;2023-04-30T05:18:01;94558.53;;;13.96;57.56
21011;BME280;10663;42.714;23.274;2023-04-30T05:19:35;94551.81;;;14.17;57.25
21011;BME280;10663;42.714;23.274;2023-04-30T05:21:06;94551.22;;;14.20;57.04
21011;BME280;10663;42.714;23.274;2023-04-30T05:22:37;94550.53;;;14.15;57.28
21011;BME280;10663;42.714;23.274;2023-04-30T05:24:08;94549.53;;;14.11;57.38
21011;BME280;10663;42.714;23.274;2023-04-30T05:25:39;94552.13;;;14.30;56.10
21011;BME280;10663;42.714;23.274;2023-04-30T05:27:10;94550.13;;;14.40;56.30
21011;BME280;10663;42.714;23.274;2023-04-30T05:28:41;94548.03;;;14.56;55.36
21011;BME280;10663;42.714;23.274;2023-04-30T05:30:11;94549.19;;;14.50;55.38
21011;BME280;10663;42.714;23.274;2023-04-30T05:31:45;94541.63;;;14.38;56.12
21011;BME280;10663;42.714;23.274;2023-04-30T05:33:16;94549.75;;;14.79;55.85
21011;BME280;10663;42.714;23.274;2023-04-30T05:34:47;94548.94;;;14.65;55.42
21011;BME280;10663;42.714;23.274;2023-04-30T05:36:17;94551.59;;;14.79;56.22
21011;BME280;10663;42.714;23.274;2023-04-30T05:37:48;94552.53;;;15.02;55.40
21011;BME280;10663;42.714;23.274;2023-04-30T05:39:19;94552.00;;;14.86;55.07
21011;BME280;10663;42.714;23.274;2023-04-30T05:40:50;94550.84;;;14.92;55.40
21011;BME280;10663;42.714;23.274;2023-04-30T05:42:21;94551.22;;;14.85;55.24
21011;BME280;10663;42.714;23.274;2023-04-30T05:43:52;94545.59;;;14.87;56.21
21011;BME280;10663;42.714;23.274;2023-04-30T05:45:23;94542.25;;;14.95;54.61
21011;BME280;10663;42.714;23.274;2023-04-30T05:46:54;94545.72;;;15.23;54.74
21011;BME280;10663;42.714;23.274;2023-04-30T05:48:25;94547.94;;;14.61;55.89
21011;BME280;10663;42.714;23.274;2023-04-30T05:49:57;94545.09;;;14.85;56.27
21011;BME280;10663;42.714;23.274;2023-04-30T05:51:30;94548.81;;;14.56;55.75
21011;BME280;10663;42.714;23.274;2023-04-30T05:53:02;94548.31;;;14.68;55.67
21011;BME280;10663;42.714;23.274;2023-04-30T05:54:33;94548.66;;;14.48;56.22
21011;BME280;10663;42.714;23.274;2023-04-30T05:56:04;94554.22;;;14.00;57.61
21011;BME280;10663;42.714;23.274;2023-04-30T05:57:35;94545.03;;;14.57;56.19
21011;BME280;10663;42.714;23.274;2023-04-30T05:59:06;94547.03;;;14.52;56.26
21011;BME280;10663;42.714;23.274;2023-04-30T06:00:36;94552.88;;;14.68;56.31
21011;BME280;10663;42.714;23.274;2023-04-30T06:02:08;94549.16;;;14.82;56.55
21011;BME280;10663;42.714;23.274;2023-04-30T06:03:39;94549.47;;;15.22;55.23
21011;BME280;10663;42.714;23.274;2023-04-30T06:05:10;94561.44;;;15.38;54.68
21011;BME280;10663;42.714;23.274;2023-04-30T06:06:41;94564.66;;;15.21;53.78
21011;BME280;10663;42.714;23.274;2023-04-30T06:08:12;94562.88;;;15.03;53.58
21011;BME280;10663;42.714;23.274;2023-04-30T06:09:43;94563.75;;;14.71;55.16
21011;BME280;10663;42.714;23.274;2023-04-30T06:11:14;94561.00;;;14.44;55.86
21011;BME280;10663;42.714;23.274;2023-04-30T06:12:45;94569.31;;;14.88;54.31
21011;BME280;10663;42.714;23.274;2023-04-30T06:14:19;94569.72;;;15.23;53.90
21011;BME280;10663;42.714;23.274;2023-04-30T06:15:52;94565.78;;;15.34;53.94
21011;BME280;10663;42.714;23.274;2023-04-30T06:17:23;94562.78;;;15.77;52.63
21011;BME280;10663;42.714;23.274;2023-04-30T06:18:54;94568.44;;;15.61;52.01
21011;BME280;10663;42.714;23.274;2023-04-30T06:20:25;94565.19;;;15.64;52.14
21011;BME280;10663;42.714;23.274;2023-04-30T06:21:56;94570.63;;;15.59;51.88
21011;BME280;10663;42.714;23.274;2023-04-30T06:23:27;94564.78;;;15.71;51.40
21011;BME280;10663;42.714;23.274;2023-04-30T06:24:58;94563.53;;;16.27;49.75
21011;BME280;10663;42.714;23.274;2023-04-30T06:26:29;94570.41;;;15.42;51.78
21011;BME280;10663;42.714;23.274;2023-04-30T06:28:00;94570.78;;;14.81;54.28
21011;BME280;10663;42.714;23.274;2023-04-30T06:29:31;94575.88;;;14.77;54.16
21011;BME280;10663;42.714;23.274;2023-04-30T06:31:02;94576.03;;;15.00;54.45
21011;BME280;10663;42.714;23.274;2023-04-30T06:32:33;94574.31;;;14.76;54.05
21011;BME280;10663;42.714;23.274;2023-04-30T06:34:04;94567.28;;;14.67;55.51
21011;BME280;10663;42.714;23.274;2023-04-30T06:35:35;94570.13;;;15.16;54.88
21011;BME280;10663;42.714;23.274;2023-04-30T06:37:06;94573.19;;;15.10;54.00
21011;BME280;10663;42.714;23.274;2023-04-30T06:38:37;94566.94;;;15.14;54.68
21011;BME280;10663;42.714;23.274;2023-04-30T06:40:08;94566.16;;;15.68;54.57
21011;BME280;10663;42.714;23.274;2023-04-30T06:41:39;94566.50;;;15.89;53.73
21011;BME280;10663;42.714;23.274;2023-04-30T06:43:13;94562.47;;;16.14;52.58
21011;BME280;10663;42.714;23.274;2023-04-30T06:44:44;94565.88;;;16.51;51.13
21011;BME280;10663;42.714;23.274;2023-04-30T06:46:16;94559.97;;;16.84;50.32
21011;BME280;10663;42.714;23.274;2023-04-30T06:47:50;94562.84;;;17.19;48.78
21011;BME280;10663;42.714;23.274;2023-04-30T06:49:22;94562.41;;;17.34;47.92
21011;BME280;10663;42.714;23.274;2023-04-30T06:50:53;94560.91;;;17.11;47.79
21011;BME280;10663;42.714;23.274;2023-04-30T06:52:26;94564.63;;;17.41;48.38
21011;BME280;10663;42.714;23.274;2023-04-30T06:53:57;94567.78;;;17.43;47.37
21011;BME280;10663;42.714;23.274;2023-04-30T06:55:28;94569.22;;;17.57;47.46
21011;BME280;10663;42.714;23.274;2023-04-30T06:56:59;94572.28;;;17.65;46.70
21011;BME280;10663;42.714;23.274;2023-04-30T06:58:31;94562.59;;;18.29;44.65
21011;BME280;10663;42.714;23.274;2023-04-30T07:00:06;94563.03;;;18.14;45.95
21011;BME280;10663;42.714;23.274;2023-04-30T07:01:38;94569.06;;;18.02;46.56
21011;BME280;10663;42.714;23.274;2023-04-30T07:03:10;94571.44;;;18.29;45.79
21011;BME280;10663;42.714;23.274;2023-04-30T07:04:44;94568.25;;;18.45;44.98
21011;BME280;10663;42.714;23.274;2023-04-30T07:06:15;94562.72;;;18.32;44.37
21011;BME280;10663;42.714;23.274;2023-04-30T07:07:46;94565.41;;;18.50;44.70
21011;BME280;10663;42.714;23.274;2023-04-30T07:09:16;94568.09;;;18.58;44.58
21011;BME280;10663;42.714;23.274;2023-04-30T07:10:47;94563.34;;;18.55;45.40
21011;BME280;10663;42.714;23.274;2023-04-30T07:12:19;94563.81;;;18.49;44.83
21011;BME280;10663;42.714;23.274;2023-04-30T07:13:51;94561.81;;;18.37;45.53
21011;BME280;10663;42.714;23.274;2023-04-30T07:15:21;94568.56;;;18.17;45.78
21011;BME280;10663;42.714;23.274;2023-04-30T07:16:52;94566.19;;;18.67;45.23
21011;BME280;10663;42.714;23.274;2023-04-30T07:18:23;94558.91;;;18.77;44.29
21011;BME280;10663;42.714;23.274;2023-04-30T07:19:54;94565.59;;;18.62;45.34
21011;BME280;10663;42.714;23.274;2023-04-30T07:21:25;94565.59;;;18.62;44.67
21011;BME280;10663;42.714;23.274;2023-04-30T07:22:59;94562.09;;;18.61;44.78
21011;BME280;10663;42.714;23.274;2023-04-30T07:24:30;94561.16;;;18.31;45.30
21011;BME280;10663;42.714;23.274;2023-04-30T07:26:01;94570.63;;;18.20;45.39
21011;BME280;10663;42.714;23.274;2023-04-30T07:27:32;94567.91;;;18.89;43.71
21011;BME280;10663;42.714;23.274;2023-04-30T07:29:03;94570.63;;;18.55;44.88
21011;BME280;10663;42.714;23.274;2023-04-30T07:30:34;94567.75;;;18.51;44.88
21011;BME280;10663;42.714;23.274;2023-04-30T07:32:05;94567.69;;;19.03;44.04
21011;BME280;10663;42.714;23.274;2023-04-30T07:33:39;94566.91;;;19.02;42.64
21011;BME280;10663;42.714;23.274;2023-04-30T07:35:09;94564.56;;;19.48;41.76
21011;BME280;10663;42.714;23.274;2023-04-30T07:36:40;94554.56;;;19.57;41.75
21011;BME280;10663;42.714;23.274;2023-04-30T07:38:11;94560.47;;;19.71;41.09
21011;BME280;10663;42.714;23.274;2023-04-30T07:39:42;94570.94;;;19.26;42.44
21011;BME280;10663;42.714;23.274;2023-04-30T07:41:13;94566.91;;;19.40;41.96
21011;BME280;10663;42.714;23.274;2023-04-30T07:42:44;94563.81;;;19.30;42.15
21011;BME280;10663;42.714;23.274;2023-04-30T07:44:15;94562.47;;;19.53;41.56
21011;BME280;10663;42.714;23.274;2023-04-30T07:45:46;94567.91;;;18.89;42.45
21011;BME280;10663;42.714;23.274;2023-04-30T07:47:18;94572.31;;;18.85;42.93
21011;BME280;10663;42.714;23.274;2023-04-30T07:48:49;94571.25;;;18.52;43.91
21011;BME280;10663;42.714;23.274;2023-04-30T07:50:20;94563.13;;;19.41;42.01
21011;BME280;10663;42.714;23.274;2023-04-30T07:51:51;94565.75;;;19.59;41.73
21011;BME280;10663;42.714;23.274;2023-04-30T07:53:22;94566.28;;;19.43;42.13
21011;BME280;10663;42.714;23.274;2023-04-30T07:54:53;94565.66;;;19.76;41.33
21011;BME280;10663;42.714;23.274;2023-04-30T07:56:24;94569.41;;;19.84;40.31
21011;BME280;10663;42.714;23.274;2023-04-30T07:57:55;94570.56;;;19.36;41.86
21011;BME280;10663;42.714;23.274;2023-04-30T07:59:26;94571.13;;;19.21;42.46
21011;BME280;10663;42.714;23.274;2023-04-30T08:00:57;94563.75;;;19.76;41.12
21011;BME280;10663;42.714;23.274;2023-04-30T08:02:28;94569.00;;;20.02;40.86
21011;BME280;10663;42.714;23.274;2023-04-30T08:03:58;94570.91;;;19.72;41.36
21011;BME280;10663;42.714;23.274;2023-04-30T08:05:29;94577.72;;;19.23;41.89
21011;BME280;10663;42.714;23.274;2023-04-30T08:07:00;94569.03;;;19.26;41.98
21011;BME280;10663;42.714;23.274;2023-04-30T08:08:32;94574.84;;;19.37;42.31
21011;BME280;10663;42.714;23.274;2023-04-30T08:10:06;94574.59;;;19.13;43.02
21011;BME280;10663;42.714;23.274;2023-04-30T08:11:37;94578.06;;;19.13;42.81
21011;BME280;10663;42.714;23.274;2023-04-30T08:13:11;94582.38;;;19.43;42.26
21011;BME280;10663;42.714;23.274;2023-04-30T08:14:42;94573.66;;;19.17;42.84
21011;BME280;10663;42.714;23.274;2023-04-30T08:16:12;94578.78;;;18.93;42.70
21011;BME280;10663;42.714;23.274;2023-04-30T08:17:43;94575.09;;;19.06;42.84